Time;durP1;ratioP1;P1;durP2;ratioP2;P2;SDS_P1;SDS_P2;PMS_P1;PMS_P2;Temp;Humidity;BMP_temperature;BMP_pressure;BME280_temperature;BME280_humidity;BME280_pressure;Samples;Min_cycle;Max_cycle;Signal;HPM_P1;HPM_P2
2022/10/13 00:02:16;;;;;;;15.70;9.90;;;;;;;;;;5020065;28;20269;-72
2022/10/13 00:04:41;;;;;;;15.13;10.60;;;;;;;;;;5027865;28;20186;-72
2022/10/13 00:07:06;;;;;;;14.47;10.50;;;;;;;;;;5024227;28;20238;-72
2022/10/13 00:09:32;;;;;;;15.30;11.20;;;;;;;;;;5025586;28;20637;-72
2022/10/13 00:11:57;;;;;;;13.47;10.33;;;;;;;;;;5024262;28;20179;-71
2022/10/13 00:14:22;;;;;;;16.93;11.03;;;;;;;;;;5014047;28;20938;-74
2022/10/13 00:16:48;;;;;;;18.37;10.83;;;;;;;;;;5030815;28;20709;-74
2022/10/13 00:19:13;;;;;;;16.67;9.87;;;;;;;;;;5032645;28;20553;-73
2022/10/13 00:21:38;;;;;;;19.87;10.73;;;;;;;;;;5020806;28;20250;-74
2022/10/13 00:24:03;;;;;;;13.13;9.20;;;;;;;;;;5025895;28;20229;-72
2022/10/13 00:26:28;;;;;;;17.47;8.93;;;;;;;;;;5026782;28;20175;-72
2022/10/13 00:28:55;;;;;;;20.23;11.17;;;;;;;;;;5016456;28;20194;-72
2022/10/13 00:31:21;;;;;;;15.80;9.90;;;;;;;;;;5028004;28;20260;-73
2022/10/13 00:33:48;;;;;;;18.23;11.40;;;;;;;;;;5022139;28;20904;-73
2022/10/13 00:36:13;;;;;;;16.17;10.63;;;;;;;;;;5031761;28;20216;-73
2022/10/13 00:38:39;;;;;;;15.67;9.77;;;;;;;;;;5029903;28;20660;-73
2022/10/13 00:41:04;;;;;;;13.33;9.50;;;;;;;;;;5020694;28;20179;-74
2022/10/13 00:44:08;;;;;;;17.00;10.37;;;;;;;;;;5013700;28;20229;-73
2022/10/13 00:46:34;;;;;;;17.67;10.77;;;;;;;;;;4942258;29;20257;-73
2022/10/13 00:49:03;;;;;;;16.73;10.53;;;;;;;;;;4942734;28;20260;-71
2022/10/13 00:51:30;;;;;;;18.23;11.13;;;;;;;;;;4977174;28;20207;-74
2022/10/13 00:53:56;;;;;;;18.20;11.77;;;;;;;;;;5003167;28;20175;-73
2022/10/13 00:56:22;;;;;;;17.27;10.50;;;;;;;;;;5024839;28;20181;-73
2022/10/13 00:58:48;;;;;;;20.77;10.47;;;;;;;;;;5017794;28;20194;-71
2022/10/13 01:01:14;;;;;;;17.70;10.47;;;;;;;;;;5008475;28;20241;-74
2022/10/13 01:03:39;;;;;;;17.47;10.33;;;;;;;;;;5021363;28;20635;-73
2022/10/13 01:06:04;;;;;;;14.47;10.00;;;;;;;;;;5016437;28;20179;-74
2022/10/13 01:08:30;;;;;;;16.90;10.10;;;;;;;;;;5009859;28;20202;-74
2022/10/13 01:11:18;;;;;;;14.60;10.77;;;;;;;;;;5016935;28;20183;-74
2022/10/13 01:13:52;;;;;;;13.60;11.17;;;;;;;;;;5022558;28;20652;-74
2022/10/13 01:16:28;;;;;;;16.40;11.17;;;;;;;;;;5026705;28;20170;-72
2022/10/13 01:18:56;;;;;;;19.20;10.33;;;;;;;;;;5012783;28;20675;-71
2022/10/13 01:21:27;;;;;;;19.30;11.47;;;;;;;;;;5010239;28;20179;-73
2022/10/13 01:24:15;;;;;;;15.80;9.90;;;;;;;;;;5002395;28;20174;-71
2022/10/13 01:26:59;;;;;;;17.10;10.30;;;;;;;;;;5027952;28;20715;-71
2022/10/13 01:29:39;;;;;;;18.10;10.43;;;;;;;;;;5031252;28;20213;-73
2022/10/13 01:32:04;;;;;;;19.80;10.70;;;;;;;;;;5024434;28;20498;-71
2022/10/13 01:34:33;;;;;;;17.53;11.17;;;;;;;;;;5023172;28;20722;-72
2022/10/13 01:37:02;;;;;;;17.03;10.63;;;;;;;;;;5015298;28;20546;-72
2022/10/13 01:39:43;;;;;;;18.80;11.77;;;;;;;;;;5023066;28;20191;-71
2022/10/13 01:42:16;;;;;;;16.40;11.23;;;;;;;;;;5024558;28;20174;-74
2022/10/13 01:44:47;;;;;;;16.90;11.63;;;;;;;;;;5029149;28;20197;-73
2022/10/13 01:47:13;;;;;;;16.33;10.75;;;;;;;;;;5017950;28;20210;-73
2022/10/13 01:49:39;;;;;;;15.90;10.07;;;;;;;;;;5019513;28;20175;-73
2022/10/13 01:52:06;;;;;;;13.83;9.37;;;;;;;;;;5017556;28;20165;-73
2022/10/13 01:54:32;;;;;;;17.57;11.00;;;;;;;;;;5010822;28;20202;-73
2022/10/13 01:56:57;;;;;;;14.83;9.43;;;;;;;;;;5030440;28;20174;-74
2022/10/13 01:59:24;;;;;;;17.17;9.77;;;;;;;;;;5010538;28;20268;-74
2022/10/13 02:02:15;;;;;;;13.47;9.20;;;;;;;;;;5021006;28;20254;-73
2022/10/13 02:04:47;;;;;;;15.03;9.83;;;;;;;;;;5030396;28;20194;-73
2022/10/13 02:07:22;;;;;;;15.77;10.17;;;;;;;;;;5008110;28;20201;-71
2022/10/13 02:09:53;;;;;;;15.93;10.53;;;;;;;;;;5019484;28;20560;-73
2022/10/13 02:12:39;;;;;;;17.03;10.40;;;;;;;;;;5024331;28;20214;-73
2022/10/13 02:15:06;;;;;;;14.33;9.43;;;;;;;;;;4998630;28;20202;-73
2022/10/13 02:17:32;;;;;;;13.95;9.95;;;;;;;;;;5026131;28;20175;-73
2022/10/13 02:19:58;;;;;;;18.30;9.83;;;;;;;;;;5034322;28;20595;-73
2022/10/13 02:22:28;;;;;;;13.65;9.35;;;;;;;;;;5023493;28;20187;-73
2022/10/13 02:24:53;;;;;;;15.77;9.57;;;;;;;;;;5008456;28;20271;-73
2022/10/13 02:27:19;;;;;;;15.97;9.47;;;;;;;;;;5023969;28;20202;-72
2022/10/13 02:29:49;;;;;;;14.83;9.90;;;;;;;;;;5011428;28;20178;-71
2022/10/13 02:32:14;;;;;;;14.27;8.70;;;;;;;;;;5015920;28;20555;-72
2022/10/13 02:34:39;;;;;;;18.67;11.10;;;;;;;;;;5025286;28;20190;-71
2022/10/13 02:37:04;;;;;;;15.70;9.27;;;;;;;;;;5033910;28;20167;-73
2022/10/13 02:39:29;;;;;;;17.20;10.43;;;;;;;;;;5030358;28;20561;-73
2022/10/13 02:41:54;;;;;;;12.33;9.63;;;;;;;;;;5024207;28;20190;-73
2022/10/13 02:44:20;;;;;;;12.50;10.03;;;;;;;;;;5025143;28;20186;-72
2022/10/13 02:46:45;;;;;;;16.00;9.98;;;;;;;;;;5034058;28;20617;-72
2022/10/13 02:49:10;;;;;;;13.93;9.80;;;;;;;;;;5019044;28;20645;-73
2022/10/13 02:51:35;;;;;;;14.30;9.60;;;;;;;;;;5023265;28;20170;-72
2022/10/13 02:54:00;;;;;;;18.50;10.63;;;;;;;;;;5029118;28;20679;-72
2022/10/13 02:56:26;;;;;;;16.55;11.25;;;;;;;;;;5028588;28;20167;-72
2022/10/13 02:58:51;;;;;;;13.38;9.75;;;;;;;;;;5019986;28;20171;-72
2022/10/13 03:01:16;;;;;;;16.42;9.48;;;;;;;;;;5025727;28;20554;-72
2022/10/13 03:03:42;;;;;;;16.45;10.57;;;;;;;;;;5015769;28;20223;-72
2022/10/13 03:06:07;;;;;;;12.50;9.13;;;;;;;;;;5025513;28;20182;-73
2022/10/13 03:08:33;;;;;;;17.02;9.68;;;;;;;;;;5030464;28;20202;-72
2022/10/13 03:10:58;;;;;;;15.68;10.35;;;;;;;;;;5030181;28;20167;-72
2022/10/13 03:13:23;;;;;;;14.87;10.00;;;;;;;;;;5020802;28;20225;-73
2022/10/13 03:15:48;;;;;;;14.97;9.90;;;;;;;;;;5020820;28;20748;-72
2022/10/13 03:18:13;;;;;;;16.73;9.87;;;;;;;;;;5007109;28;20178;-72
2022/10/13 03:20:39;;;;;;;22.40;10.47;;;;;;;;;;5032737;28;20197;-73
2022/10/13 03:23:05;;;;;;;13.65;10.68;;;;;;;;;;5029089;28;20205;-73
2022/10/13 03:25:31;;;;;;;17.77;9.83;;;;;;;;;;5032180;28;20218;-73
2022/10/13 03:27:56;;;;;;;17.30;10.70;;;;;;;;;;5029388;28;20675;-72
2022/10/13 03:30:22;;;;;;;18.42;9.93;;;;;;;;;;5019010;28;20902;-72
2022/10/13 03:32:47;;;;;;;14.13;10.00;;;;;;;;;;5017392;28;20201;-72
2022/10/13 03:35:13;;;;;;;17.52;10.60;;;;;;;;;;5027708;28;20190;-72
2022/10/13 03:37:38;;;;;;;15.45;9.77;;;;;;;;;;5015342;28;20186;-72
2022/10/13 03:40:03;;;;;;;14.23;10.27;;;;;;;;;;5030744;28;20182;-73
2022/10/13 03:42:28;;;;;;;18.57;10.27;;;;;;;;;;5027454;28;20580;-72
2022/10/13 03:44:54;;;;;;;16.77;10.95;;;;;;;;;;5008080;28;20202;-72
2022/10/13 03:47:19;;;;;;;15.20;10.00;;;;;;;;;;5024289;28;20222;-72
2022/10/13 03:49:44;;;;;;;18.40;10.27;;;;;;;;;;5030822;28;20221;-72
2022/10/13 03:52:09;;;;;;;14.60;10.02;;;;;;;;;;5027355;28;20167;-72
2022/10/13 03:54:34;;;;;;;32.88;10.88;;;;;;;;;;5029841;28;20232;-73
2022/10/13 03:56:59;;;;;;;14.95;9.10;;;;;;;;;;5032615;28;20171;-72
2022/10/13 03:59:26;;;;;;;17.58;10.48;;;;;;;;;;5020609;28;20186;-73
2022/10/13 04:01:51;;;;;;;17.05;10.88;;;;;;;;;;5019169;28;20167;-72
2022/10/13 04:04:16;;;;;;;13.70;9.10;;;;;;;;;;5018471;28;20669;-72
2022/10/13 04:06:41;;;;;;;14.40;9.80;;;;;;;;;;5031237;28;20175;-72
2022/10/13 04:09:07;;;;;;;16.17;10.68;;;;;;;;;;5027303;28;20244;-72
2022/10/13 04:11:32;;;;;;;16.00;9.90;;;;;;;;;;5027886;28;20186;-73
2022/10/13 04:13:57;;;;;;;12.68;9.27;;;;;;;;;;5017354;28;20270;-73
2022/10/13 04:16:24;;;;;;;18.42;10.07;;;;;;;;;;5028925;28;20236;-72
2022/10/13 04:19:00;;;;;;;17.17;10.37;;;;;;;;;;5030597;28;20274;-72
2022/10/13 04:21:25;;;;;;;16.92;10.32;;;;;;;;;;5028239;28;20239;-73
2022/10/13 04:23:53;;;;;;;18.33;10.57;;;;;;;;;;5029855;28;20182;-72
2022/10/13 04:26:19;;;;;;;12.60;9.68;;;;;;;;;;5028585;28;20249;-72
2022/10/13 04:28:45;;;;;;;19.50;11.73;;;;;;;;;;5018021;28;20657;-73
2022/10/13 04:31:10;;;;;;;17.37;11.13;;;;;;;;;;5024358;28;20201;-72
2022/10/13 04:33:36;;;;;;;14.30;9.38;;;;;;;;;;5022411;28;20167;-72
2022/10/13 04:36:04;;;;;;;21.67;11.13;;;;;;;;;;5031522;28;20194;-72
2022/10/13 04:38:30;;;;;;;18.00;11.25;;;;;;;;;;5026390;28;20188;-73
2022/10/13 04:40:55;;;;;;;15.73;10.70;;;;;;;;;;5023919;28;20265;-72
2022/10/13 04:43:20;;;;;;;16.97;11.50;;;;;;;;;;5017682;28;20181;-72
2022/10/13 04:45:45;;;;;;;17.42;10.20;;;;;;;;;;5031710;28;20749;-72
2022/10/13 04:48:10;;;;;;;17.45;10.98;;;;;;;;;;5028929;28;20194;-72
2022/10/13 04:50:36;;;;;;;14.87;11.27;;;;;;;;;;5028664;28;20186;-73
2022/10/13 04:53:01;;;;;;;17.23;10.15;;;;;;;;;;5028363;28;20178;-72
2022/10/13 04:55:26;;;;;;;14.98;9.95;;;;;;;;;;5019528;28;20202;-73
2022/10/13 04:57:52;;;;;;;14.23;11.13;;;;;;;;;;5021268;28;20690;-72
2022/10/13 05:00:17;;;;;;;16.58;10.55;;;;;;;;;;5029814;28;20193;-74
2022/10/13 05:02:42;;;;;;;23.77;11.85;;;;;;;;;;5026609;28;20178;-72
2022/10/13 05:05:08;;;;;;;19.08;10.45;;;;;;;;;;5029023;28;20677;-72
2022/10/13 05:07:33;;;;;;;14.88;10.15;;;;;;;;;;5025197;28;20239;-73
2022/10/13 05:09:58;;;;;;;18.95;10.88;;;;;;;;;;5013094;28;20257;-73
2022/10/13 05:12:23;;;;;;;16.27;11.13;;;;;;;;;;5022737;28;20175;-73
2022/10/13 05:14:49;;;;;;;18.00;10.65;;;;;;;;;;5019725;28;20242;-72
2022/10/13 05:17:14;;;;;;;19.23;12.10;;;;;;;;;;5023350;28;20175;-72
2022/10/13 05:19:39;;;;;;;15.90;11.48;;;;;;;;;;5025892;28;20167;-72
2022/10/13 05:22:04;;;;;;;11.55;9.88;;;;;;;;;;5025466;28;20727;-72
2022/10/13 05:24:35;;;;;;;16.17;10.35;;;;;;;;;;5015804;28;20221;-72
2022/10/13 05:27:01;;;;;;;15.73;10.30;;;;;;;;;;5028520;28;20170;-72
2022/10/13 05:29:26;;;;;;;16.70;10.82;;;;;;;;;;5029834;28;20178;-72
2022/10/13 05:31:52;;;;;;;19.08;10.95;;;;;;;;;;5025279;28;20175;-72
2022/10/13 05:34:17;;;;;;;17.85;11.43;;;;;;;;;;5030562;28;20186;-72
2022/10/13 05:36:42;;;;;;;19.48;11.38;;;;;;;;;;5028861;28;20181;-72
2022/10/13 05:39:08;;;;;;;17.55;10.15;;;;;;;;;;5028538;28;20174;-72
2022/10/13 05:41:34;;;;;;;17.33;10.40;;;;;;;;;;5017142;28;20183;-72
2022/10/13 05:44:00;;;;;;;16.85;11.85;;;;;;;;;;5030233;28;20200;-73
2022/10/13 05:46:26;;;;;;;15.95;10.27;;;;;;;;;;5035191;28;20178;-72
2022/10/13 05:48:51;;;;;;;18.55;10.65;;;;;;;;;;5033104;28;20204;-72
2022/10/13 05:51:19;;;;;;;18.48;12.27;;;;;;;;;;5024767;28;20663;-72
2022/10/13 05:53:47;;;;;;;20.90;11.93;;;;;;;;;;5025347;28;20224;-72
2022/10/13 05:56:14;;;;;;;15.75;10.30;;;;;;;;;;5030024;28;20171;-72
2022/10/13 05:58:42;;;;;;;17.13;10.30;;;;;;;;;;5023981;28;20245;-72
2022/10/13 06:01:09;;;;;;;14.35;9.95;;;;;;;;;;5026968;28;20654;-72
2022/10/13 06:03:35;;;;;;;17.40;10.68;;;;;;;;;;5023799;28;20221;-72
2022/10/13 06:06:00;;;;;;;17.88;11.05;;;;;;;;;;5013610;28;20683;-72
2022/10/13 06:08:26;;;;;;;19.50;10.38;;;;;;;;;;5034275;28;20202;-72
2022/10/13 06:10:51;;;;;;;19.20;10.85;;;;;;;;;;5033741;28;20640;-72
2022/10/13 06:13:16;;;;;;;19.42;11.38;;;;;;;;;;5021644;28;20218;-72
2022/10/13 06:15:41;;;;;;;20.45;11.95;;;;;;;;;;5016225;28;20201;-72
2022/10/13 06:18:09;;;;;;;17.13;11.85;;;;;;;;;;5029453;28;20231;-72
2022/10/13 06:20:35;;;;;;;20.52;12.75;;;;;;;;;;5036945;28;20170;-73
2022/10/13 06:23:00;;;;;;;24.50;12.70;;;;;;;;;;5033842;28;20179;-72
2022/10/13 06:25:26;;;;;;;16.85;12.32;;;;;;;;;;5036628;28;20217;-72
2022/10/13 06:27:51;;;;;;;22.75;12.93;;;;;;;;;;5025254;28;20232;-72
2022/10/13 06:30:16;;;;;;;19.42;11.98;;;;;;;;;;5028178;28;20270;-74
2022/10/13 06:32:41;;;;;;;18.48;11.75;;;;;;;;;;5022573;28;20490;-71
2022/10/13 06:35:07;;;;;;;20.25;12.43;;;;;;;;;;5032281;28;20203;-72
2022/10/13 06:37:32;;;;;;;22.88;13.25;;;;;;;;;;5029039;28;20186;-71
2022/10/13 06:39:57;;;;;;;19.17;12.95;;;;;;;;;;5032660;28;20202;-72
2022/10/13 06:42:22;;;;;;;19.27;12.93;;;;;;;;;;5024937;28;20671;-74
2022/10/13 06:44:48;;;;;;;21.10;13.80;;;;;;;;;;5028904;28;20193;-72
2022/10/13 06:47:13;;;;;;;22.83;14.27;;;;;;;;;;5032798;28;20523;-71
2022/10/13 06:49:38;;;;;;;22.60;14.60;;;;;;;;;;5033926;28;20170;-71
2022/10/13 06:52:04;;;;;;;19.88;14.23;;;;;;;;;;5027034;28;20177;-71
2022/10/13 06:54:29;;;;;;;26.15;15.52;;;;;;;;;;5031205;28;20202;-71
2022/10/13 06:56:54;;;;;;;21.95;13.82;;;;;;;;;;5012488;28;20171;-71
2022/10/13 06:59:20;;;;;;;21.67;15.70;;;;;;;;;;5020828;28;20648;-73
2022/10/13 07:01:46;;;;;;;22.13;14.88;;;;;;;;;;5018130;28;20190;-73
2022/10/13 07:04:11;;;;;;;25.50;15.13;;;;;;;;;;5031643;28;20195;-72
2022/10/13 07:06:36;;;;;;;24.63;15.15;;;;;;;;;;5031151;28;20240;-72
2022/10/13 07:09:03;;;;;;;24.05;16.83;;;;;;;;;;5021603;28;20229;-72
2022/10/13 07:11:28;;;;;;;21.63;15.30;;;;;;;;;;5019133;28;20192;-72
2022/10/13 07:13:53;;;;;;;23.40;16.40;;;;;;;;;;5025772;28;20174;-72
2022/10/13 07:16:19;;;;;;;21.50;14.10;;;;;;;;;;5028493;28;20550;-72
2022/10/13 07:18:46;;;;;;;24.58;16.35;;;;;;;;;;5025649;28;20595;-72
2022/10/13 07:21:11;;;;;;;21.67;15.00;;;;;;;;;;5033072;28;20257;-72
2022/10/13 07:23:36;;;;;;;26.70;16.42;;;;;;;;;;5020927;28;20269;-72
2022/10/13 07:26:05;;;;;;;22.63;14.77;;;;;;;;;;5026923;28;20729;-72
2022/10/13 07:28:30;;;;;;;19.48;14.20;;;;;;;;;;5030061;28;20296;-72
2022/10/13 07:30:55;;;;;;;21.92;15.90;;;;;;;;;;5015101;28;20257;-74
2022/10/13 07:33:21;;;;;;;20.00;14.30;;;;;;;;;;5019305;28;20175;-72
2022/10/13 07:35:46;;;;;;;21.45;14.52;;;;;;;;;;5025258;28;20186;-74
2022/10/13 07:38:11;;;;;;;21.70;14.02;;;;;;;;;;5010732;28;20166;-73
2022/10/13 07:40:37;;;;;;;21.13;13.70;;;;;;;;;;5006125;28;20187;-73
2022/10/13 07:43:02;;;;;;;22.05;15.05;;;;;;;;;;5026857;28;20652;-72
2022/10/13 07:45:27;;;;;;;21.10;14.95;;;;;;;;;;5005411;28;20199;-73
2022/10/13 07:47:53;;;;;;;19.63;13.70;;;;;;;;;;5005135;28;20205;-71
2022/10/13 07:50:18;;;;;;;23.00;15.00;;;;;;;;;;5021160;28;20178;-73
2022/10/13 07:52:43;;;;;;;19.08;12.77;;;;;;;;;;5030234;28;20174;-71
2022/10/13 07:55:09;;;;;;;22.20;14.35;;;;;;;;;;5012178;28;20203;-73
2022/10/13 07:57:34;;;;;;;20.83;14.98;;;;;;;;;;5009201;28;20637;-73
2022/10/13 07:59:59;;;;;;;18.45;13.13;;;;;;;;;;5008584;28;20233;-73
2022/10/13 08:02:25;;;;;;;20.75;14.82;;;;;;;;;;5011813;28;20237;-71
2022/10/13 08:04:50;;;;;;;18.65;13.63;;;;;;;;;;5006539;28;20389;-71
2022/10/13 08:07:16;;;;;;;21.08;12.93;;;;;;;;;;5017944;28;20179;-72
2022/10/13 08:09:41;;;;;;;19.58;14.32;;;;;;;;;;4999782;28;20228;-72
2022/10/13 08:12:06;;;;;;;21.67;13.75;;;;;;;;;;5029824;28;20556;-74
2022/10/13 08:14:32;;;;;;;19.27;14.30;;;;;;;;;;5013031;28;20591;-71
2022/10/13 08:16:57;;;;;;;23.33;15.35;;;;;;;;;;5015300;28;20281;-72
2022/10/13 08:19:25;;;;;;;20.08;13.98;;;;;;;;;;5014467;28;20257;-73
2022/10/13 08:21:50;;;;;;;17.38;14.43;;;;;;;;;;5017236;28;20593;-73
2022/10/13 08:24:16;;;;;;;23.42;14.75;;;;;;;;;;5012208;28;20210;-73
2022/10/13 08:26:42;;;;;;;24.48;13.23;;;;;;;;;;5010957;28;20210;-73
2022/10/13 08:29:08;;;;;;;18.60;13.13;;;;;;;;;;5023161;28;20194;-73
2022/10/13 08:31:33;;;;;;;18.05;12.35;;;;;;;;;;5011991;28;20179;-73
2022/10/13 08:33:58;;;;;;;16.02;12.18;;;;;;;;;;5019999;28;20184;-73
2022/10/13 08:36:24;;;;;;;14.88;12.38;;;;;;;;;;5031261;28;20174;-73
2022/10/13 08:38:49;;;;;;;15.48;11.93;;;;;;;;;;5022062;28;20193;-73
2022/10/13 08:41:18;;;;;;;17.25;12.05;;;;;;;;;;5012062;28;20214;-73
2022/10/13 08:43:51;;;;;;;17.48;12.32;;;;;;;;;;5019886;28;20186;-74
2022/10/13 08:46:29;;;;;;;14.88;11.27;;;;;;;;;;5027733;28;20228;-71
2022/10/13 08:48:55;;;;;;;16.77;11.82;;;;;;;;;;5007750;28;20202;-73
2022/10/13 08:51:21;;;;;;;17.85;12.07;;;;;;;;;;5031024;28;20276;-73
2022/10/13 08:53:47;;;;;;;19.05;12.05;;;;;;;;;;5007582;28;20179;-73
2022/10/13 08:56:21;;;;;;;17.67;12.88;;;;;;;;;;5030140;28;20223;-71
2022/10/13 08:58:47;;;;;;;18.88;12.40;;;;;;;;;;5011902;28;20174;-72
2022/10/13 09:01:14;;;;;;;16.38;10.85;;;;;;;;;;5023917;28;20623;-72
2022/10/13 09:03:45;;;;;;;16.65;10.95;;;;;;;;;;5028275;28;20178;-72
2022/10/13 09:06:20;;;;;;;16.08;10.15;;;;;;;;;;5030861;28;20174;-72
2022/10/13 09:09:05;;;;;;;15.50;10.32;;;;;;;;;;5005324;28;20198;-72
2022/10/13 09:11:33;;;;;;;15.25;10.38;;;;;;;;;;5008848;28;20194;-72
2022/10/13 09:13:59;;;;;;;13.40;9.88;;;;;;;;;;5018135;28;20643;-72
2022/10/13 09:16:26;;;;;;;16.90;9.60;;;;;;;;;;5011469;28;20572;-72
2022/10/13 09:18:51;;;;;;;13.60;8.75;;;;;;;;;;5030024;28;20178;-73
2022/10/13 09:21:23;;;;;;;16.77;10.35;;;;;;;;;;5028238;28;20178;-73
2022/10/13 09:23:49;;;;;;;10.48;7.78;;;;;;;;;;5020243;28;20186;-73
2022/10/13 09:26:19;;;;;;;14.68;8.43;;;;;;;;;;5024276;28;20187;-71
2022/10/13 09:28:44;;;;;;;14.57;10.18;;;;;;;;;;5027250;28;20198;-71
2022/10/13 09:31:12;;;;;;;13.70;8.93;;;;;;;;;;5030802;28;20197;-71
2022/10/13 09:33:38;;;;;;;11.13;7.93;;;;;;;;;;5020118;28;20179;-71
2022/10/13 09:36:05;;;;;;;18.48;9.50;;;;;;;;;;5006768;28;20187;-71
2022/10/13 09:38:30;;;;;;;16.83;9.52;;;;;;;;;;5011902;28;20589;-71
2022/10/13 09:40:55;;;;;;;10.77;8.40;;;;;;;;;;5030856;28;20178;-71
2022/10/13 09:43:29;;;;;;;14.65;9.75;;;;;;;;;;5011753;28;20700;-71
2022/10/13 09:45:55;;;;;;;16.92;8.48;;;;;;;;;;5030581;28;20197;-71
2022/10/13 09:48:32;;;;;;;12.48;8.60;;;;;;;;;;5030359;28;20206;-71
2022/10/13 09:50:57;;;;;;;11.40;7.50;;;;;;;;;;5013167;28;20169;-71
2022/10/13 09:53:23;;;;;;;11.77;8.05;;;;;;;;;;5016789;28;20179;-71
2022/10/13 09:55:48;;;;;;;13.20;9.03;;;;;;;;;;5029159;28;20195;-71
2022/10/13 09:58:29;;;;;;;15.00;8.68;;;;;;;;;;5006069;28;20800;-71
2022/10/13 10:00:54;;;;;;;12.00;8.43;;;;;;;;;;5012530;28;20186;-71
2022/10/13 10:03:22;;;;;;;17.75;9.15;;;;;;;;;;5011884;28;20182;-71
2022/10/13 10:05:55;;;;;;;15.68;8.75;;;;;;;;;;5021023;28;20228;-71
2022/10/13 10:08:46;;;;;;;12.85;9.05;;;;;;;;;;5026913;28;20319;-71
2022/10/13 10:11:14;;;;;;;11.88;8.40;;;;;;;;;;5018096;28;20669;-71
2022/10/13 10:13:39;;;;;;;15.57;9.02;;;;;;;;;;5017446;28;20186;-71
2022/10/13 10:16:06;;;;;;;14.15;9.82;;;;;;;;;;5022663;28;20567;-71
2022/10/13 10:18:34;;;;;;;15.02;9.45;;;;;;;;;;5030495;28;20193;-71
2022/10/13 10:21:04;;;;;;;16.88;10.00;;;;;;;;;;5022895;28;20206;-71
2022/10/13 10:23:29;;;;;;;14.52;9.10;;;;;;;;;;5026654;28;20321;-71
2022/10/13 10:26:00;;;;;;;14.45;10.30;;;;;;;;;;5032337;28;20676;-71
2022/10/13 10:29:00;;;;;;;11.60;8.98;;;;;;;;;;5015762;28;20221;-71
2022/10/13 10:31:45;;;;;;;13.23;9.38;;;;;;;;;;4946579;29;20553;-71
2022/10/13 10:34:26;;;;;;;13.23;9.32;;;;;;;;;;4998812;28;20209;-71
2022/10/13 10:37:02;;;;;;;18.95;10.40;;;;;;;;;;5018348;28;20261;-71
2022/10/13 10:39:42;;;;;;;15.13;10.73;;;;;;;;;;5010423;28;20183;-71
2022/10/13 10:42:07;;;;;;;16.92;9.82;;;;;;;;;;5009011;28;20580;-71
2022/10/13 10:44:38;;;;;;;16.83;9.57;;;;;;;;;;5020204;28;20205;-71
2022/10/13 10:47:14;;;;;;;21.83;10.73;;;;;;;;;;5034344;28;20400;-71
2022/10/13 10:49:40;;;;;;;17.30;11.23;;;;;;;;;;5027909;28;20261;-71
2022/10/13 10:52:07;;;;;;;12.73;9.55;;;;;;;;;;5028838;28;20254;-71
2022/10/13 10:54:42;;;;;;;13.73;8.88;;;;;;;;;;5029246;28;20198;-71
2022/10/13 10:57:11;;;;;;;13.68;9.65;;;;;;;;;;5010190;28;20178;-71
2022/10/13 10:59:39;;;;;;;15.43;9.30;;;;;;;;;;5009941;28;20184;-71
2022/10/13 11:02:07;;;;;;;17.38;10.43;;;;;;;;;;5025660;28;20205;-71
2022/10/13 11:04:48;;;;;;;15.07;9.50;;;;;;;;;;5028643;28;20281;-71
2022/10/13 11:07:22;;;;;;;14.68;9.43;;;;;;;;;;5007655;28;20193;-71
2022/10/13 11:09:48;;;;;;;16.90;10.27;;;;;;;;;;5018771;28;20240;-71
2022/10/13 11:12:19;;;;;;;16.80;9.02;;;;;;;;;;5024743;28;20632;-71
2022/10/13 11:14:45;;;;;;;15.45;10.27;;;;;;;;;;5006479;28;20277;-71
2022/10/13 11:17:16;;;;;;;14.88;9.70;;;;;;;;;;5014558;28;20589;-71
2022/10/13 11:19:41;;;;;;;16.27;10.82;;;;;;;;;;5033528;28;20177;-71
2022/10/13 11:22:06;;;;;;;14.23;8.65;;;;;;;;;;5030639;28;20174;-71
2022/10/13 11:24:35;;;;;;;14.57;9.13;;;;;;;;;;5028210;28;20218;-71
2022/10/13 11:27:06;;;;;;;15.43;8.55;;;;;;;;;;5009702;28;20429;-71
2022/10/13 11:29:44;;;;;;;15.90;9.23;;;;;;;;;;5025014;28;20301;-71
2022/10/13 11:35:16;;;;;;;13.73;10.05;;;;;;;;;;5012531;28;20198;-71
2022/10/13 11:37:57;;;;;;;18.95;10.38;;;;;;;;;;5030064;28;20194;-71
2022/10/13 11:40:41;;;;;;;13.57;9.43;;;;;;;;;;5027685;28;20619;-71
2022/10/13 11:43:15;;;;;;;14.80;9.20;;;;;;;;;;5009057;28;20182;-71
2022/10/13 11:45:41;;;;;;;12.48;9.38;;;;;;;;;;5014758;28;20277;-71
2022/10/13 11:48:15;;;;;;;17.97;8.67;;;;;;;;;;5025250;28;20329;-71
2022/10/13 11:51:04;;;;;;;15.55;9.43;;;;;;;;;;5030181;28;20420;-71
2022/10/13 11:53:48;;;;;;;16.58;9.73;;;;;;;;;;5027582;28;20174;-71
2022/10/13 11:56:31;;;;;;;17.05;9.63;;;;;;;;;;5024981;28;20178;-71
2022/10/13 11:58:56;;;;;;;13.80;9.45;;;;;;;;;;5017845;28;20258;-71
2022/10/13 12:01:22;;;;;;;15.93;9.73;;;;;;;;;;5011326;28;20257;-71
2022/10/13 12:03:47;;;;;;;14.27;9.23;;;;;;;;;;5022633;28;20174;-71
2022/10/13 12:06:22;;;;;;;15.65;9.77;;;;;;;;;;5032626;28;20415;-72
2022/10/13 12:08:48;;;;;;;11.98;9.38;;;;;;;;;;5007251;28;20198;-70
2022/10/13 12:11:32;;;;;;;13.13;9.30;;;;;;;;;;5016679;28;20545;-70
2022/10/13 12:13:59;;;;;;;12.23;9.38;;;;;;;;;;5013602;28;20170;-72
2022/10/13 12:16:25;;;;;;;12.48;8.13;;;;;;;;;;5027138;28;20558;-69
2022/10/13 12:18:50;;;;;;;15.20;9.13;;;;;;;;;;5026670;28;20210;-69
2022/10/13 12:21:18;;;;;;;12.32;8.27;;;;;;;;;;5013599;28;20214;-72
2022/10/13 12:23:44;;;;;;;13.88;8.63;;;;;;;;;;5010590;28;20298;-70
2022/10/13 12:26:14;;;;;;;17.42;9.02;;;;;;;;;;5008440;28;20285;-70
2022/10/13 12:28:51;;;;;;;13.70;9.63;;;;;;;;;;5005482;28;20195;-69
2022/10/13 12:31:18;;;;;;;12.90;8.25;;;;;;;;;;5010047;28;20671;-70
2022/10/13 12:33:50;;;;;;;13.43;8.95;;;;;;;;;;5015823;28;20184;-71
2022/10/13 12:36:20;;;;;;;12.80;9.40;;;;;;;;;;5012265;28;20244;-71
2022/10/13 12:38:50;;;;;;;13.48;8.57;;;;;;;;;;5010302;28;20183;-72
2022/10/13 12:41:17;;;;;;;14.75;8.63;;;;;;;;;;5008642;28;20209;-72
2022/10/13 12:43:43;;;;;;;11.55;9.63;;;;;;;;;;5009704;28;20656;-71
2022/10/13 12:46:08;;;;;;;13.32;9.02;;;;;;;;;;5015579;28;20175;-72
2022/10/13 12:48:35;;;;;;;13.85;10.18;;;;;;;;;;5029943;28;20229;-71
2022/10/13 12:51:15;;;;;;;16.27;9.68;;;;;;;;;;5031450;28;20230;-72
2022/10/13 12:53:40;;;;;;;12.65;9.30;;;;;;;;;;5005987;28;20695;-72
2022/10/13 12:56:05;;;;;;;15.32;10.00;;;;;;;;;;5007848;28;20208;-72
2022/10/13 12:58:32;;;;;;;14.15;8.65;;;;;;;;;;5001010;28;20562;-70
2022/10/13 13:01:12;;;;;;;20.08;11.02;;;;;;;;;;5006793;28;20194;-70
2022/10/13 13:03:38;;;;;;;15.70;9.80;;;;;;;;;;5008290;28;20194;-72
2022/10/13 13:06:20;;;;;;;14.98;9.75;;;;;;;;;;5008461;28;20253;-70
2022/10/13 13:08:45;;;;;;;16.05;9.48;;;;;;;;;;5010128;28;20239;-71
2022/10/13 13:11:31;;;;;;;16.30;9.63;;;;;;;;;;5026824;28;20205;-71
2022/10/13 13:14:15;;;;;;;12.93;9.45;;;;;;;;;;5012875;28;20181;-70
2022/10/13 13:16:40;;;;;;;12.90;9.70;;;;;;;;;;5025711;28;20175;-71
2022/10/13 13:19:20;;;;;;;14.98;9.35;;;;;;;;;;5008974;28;20193;-70
2022/10/13 13:21:45;;;;;;;15.95;10.63;;;;;;;;;;5017850;28;20182;-70
2022/10/13 13:24:10;;;;;;;13.82;9.10;;;;;;;;;;5011416;28;20206;-71
2022/10/13 13:26:36;;;;;;;20.90;9.95;;;;;;;;;;5027953;28;20214;-71
2022/10/13 13:29:01;;;;;;;14.07;11.07;;;;;;;;;;5019801;28;20203;-71
2022/10/13 13:31:26;;;;;;;14.10;10.13;;;;;;;;;;5023735;28;20798;-70
2022/10/13 13:33:51;;;;;;;13.90;10.07;;;;;;;;;;5020799;28;20497;-71
2022/10/13 13:36:18;;;;;;;14.52;11.75;;;;;;;;;;5031088;28;20178;-71
2022/10/13 13:38:43;;;;;;;15.13;10.60;;;;;;;;;;5021044;28;20600;-71
2022/10/13 13:41:09;;;;;;;16.27;11.07;;;;;;;;;;5030801;28;20257;-71
2022/10/13 13:43:35;;;;;;;16.73;12.57;;;;;;;;;;5028880;28;20269;-71
2022/10/13 13:46:00;;;;;;;16.33;12.80;;;;;;;;;;5017137;28;20333;-71
2022/10/13 13:48:25;;;;;;;18.05;12.18;;;;;;;;;;5026328;28;20214;-70
2022/10/13 13:50:50;;;;;;;17.92;10.63;;;;;;;;;;5012740;28;20178;-71
2022/10/13 13:53:15;;;;;;;17.20;12.55;;;;;;;;;;5023084;28;20783;-71
2022/10/13 13:55:42;;;;;;;14.52;11.55;;;;;;;;;;5030049;28;20190;-71
2022/10/13 13:58:08;;;;;;;15.98;11.77;;;;;;;;;;5021512;28;20183;-71
2022/10/13 14:00:33;;;;;;;15.63;12.93;;;;;;;;;;5023246;28;20714;-71
2022/10/13 14:02:58;;;;;;;18.63;13.00;;;;;;;;;;5028838;28;20213;-70
2022/10/13 14:05:23;;;;;;;16.17;12.90;;;;;;;;;;5032391;28;20240;-71
2022/10/13 14:07:51;;;;;;;13.48;10.35;;;;;;;;;;5026776;28;20205;-71
2022/10/13 14:10:16;;;;;;;17.17;11.75;;;;;;;;;;5028204;28;20228;-70
2022/10/13 14:12:41;;;;;;;14.90;11.45;;;;;;;;;;5026742;28;20183;-71
2022/10/13 14:15:07;;;;;;;16.05;12.48;;;;;;;;;;5023015;28;20567;-70
2022/10/13 14:17:32;;;;;;;17.20;11.90;;;;;;;;;;5033437;28;20257;-71
2022/10/13 14:19:57;;;;;;;14.55;10.70;;;;;;;;;;5019085;28;20183;-71
2022/10/13 14:22:23;;;;;;;15.23;10.55;;;;;;;;;;5021010;28;20171;-71
2022/10/13 14:24:48;;;;;;;14.88;11.27;;;;;;;;;;5027437;28;20679;-71
2022/10/13 14:27:13;;;;;;;14.27;10.95;;;;;;;;;;5031943;28;20180;-71
2022/10/13 14:29:38;;;;;;;14.68;12.02;;;;;;;;;;5034430;28;20214;-71